CBG8 weather

Prince George (Pacific Western Helicopters) Heliport
Prince George, British Columbia, Canada

Public forecast

Using degrees Celsius for public forecast. Weather courtesy of forecast.io.

METAR (pilot weather report)

Closest report is Prince George Airport, 3.2 nm (5.9 km) ENE. Retrieved 2019/08/23 23:00 UTC (24 minutes ago):

CYXS 232300Z AUTO 18007KT 9SM FEW085 17/13 A2976 RMK SLP088 DENSITY ALT 3200FT

TAF (pilot weather forecast)

Closest forecast is Prince George Airport, 3.2 nm (5.9 km) ENE. Retrieved 2019/08/23 19:42 UTC (4 hours ago):

TAF CYXS 231838Z 2319/2407 18008KT P6SM BKN070 TEMPO 2319/2402 P6SM -SHRA BKN050 FM240200 18008KT P6SM BKN080 RMK FCST BASED ON AUTO OBS. NXT FCST BY 240100Z